createdAt,value
2022-08-18T00:00:53.029Z,33.10
2022-08-18T00:02:58.419Z,18.55
2022-08-18T00:05:03.223Z,24.25
2022-08-18T00:07:09.673Z,25.70
2022-08-18T00:09:11.928Z,24.38
2022-08-18T00:11:13.566Z,26.77
2022-08-18T00:13:15.008Z,24.45
2022-08-18T00:15:17.986Z,23.08
2022-08-18T00:17:19.777Z,21.45
2022-08-18T00:19:43.500Z,27.67
2022-08-18T00:21:44.073Z,25.17
2022-08-18T00:23:45.584Z,27.65
2022-08-18T00:25:47.556Z,31.98
2022-08-18T00:27:49.173Z,19.45
2022-08-18T00:29:51.818Z,19.05
2022-08-18T00:31:53.435Z,19.20
2022-08-18T00:33:55.260Z,20.23
2022-08-18T00:35:56.852Z,21.40
2022-08-18T00:37:59.522Z,18.52
2022-08-18T00:40:01.193Z,27.30
2022-08-18T00:42:12.887Z,24.88
2022-08-18T00:44:30.896Z,25.80
2022-08-18T00:46:34.541Z,24.90
2022-08-18T00:48:36.242Z,24.85
2022-08-18T00:50:57.232Z,29.85
2022-08-18T00:53:04.891Z,27.60
2022-08-18T00:55:07.322Z,28.52
2022-08-18T00:57:08.936Z,23.55
2022-08-18T00:59:28.864Z,17.40
2022-08-18T01:01:31.937Z,23.20
2022-08-18T01:03:34.262Z,24.00
2022-08-18T01:05:40.952Z,29.10
2022-08-18T01:07:46.796Z,20.92
2022-08-18T01:09:49.606Z,33.72
2022-08-18T01:11:51.485Z,30.35
2022-08-18T01:13:53.987Z,22.80
2022-08-18T01:15:55.997Z,20.92
2022-08-18T01:18:17.507Z,27.80
2022-08-18T01:20:40.667Z,22.85
2022-08-18T01:23:04.645Z,23.95
2022-08-18T01:25:26.211Z,23.17
2022-08-18T01:27:31.978Z,29.05
2022-08-18T01:29:40.229Z,23.40
2022-08-18T01:31:55.450Z,23.65
2022-08-18T01:33:57.517Z,23.35
2022-08-18T01:36:01.331Z,26.48
2022-08-18T01:38:02.903Z,15.18
2022-08-18T01:41:27.238Z,28.58
2022-08-18T01:42:28.865Z,25.15
2022-08-18T01:44:30.432Z,26.00
2022-08-18T01:46:33.762Z,33.08
2022-08-18T01:48:36.097Z,25.83
2022-08-18T01:50:39.875Z,24.25
2022-08-18T01:52:41.360Z,24.23
2022-08-18T01:54:42.910Z,24.27
2022-08-18T01:56:44.569Z,27.52
2022-08-18T01:58:47.809Z,30.38
2022-08-18T02:00:49.344Z,33.75
2022-08-18T02:02:57.281Z,19.98
2022-08-18T02:05:07.950Z,30.15
2022-08-18T02:07:10.948Z,24.65
2022-08-18T02:09:13.131Z,28.33
2022-08-18T02:11:14.916Z,24.67
2022-08-18T02:13:16.720Z,29.23
2022-08-18T02:15:18.251Z,26.95
2022-08-18T02:17:19.950Z,17.80
2022-08-18T02:19:21.680Z,29.88
2022-08-18T02:21:23.309Z,22.52
2022-08-18T02:23:25.310Z,33.53
2022-08-18T02:25:26.880Z,32.20
2022-08-18T02:27:28.601Z,30.20
2022-08-18T02:29:30.213Z,23.77
2022-08-18T02:31:37.344Z,26.83
2022-08-18T02:33:40.808Z,28.95
2022-08-18T02:36:00.891Z,46.83
2022-08-18T02:38:13.332Z,23.02
2022-08-18T02:40:28.668Z,29.10
2022-08-18T02:42:40.785Z,22.98
2022-08-18T02:44:51.918Z,26.80
2022-08-18T02:47:03.735Z,28.63
2022-08-18T02:49:13.933Z,32.13
2022-08-18T02:51:25.779Z,24.92
2022-08-18T02:53:39.614Z,25.80
2022-08-18T02:55:52.892Z,21.02
2022-08-18T02:57:56.700Z,23.33
2022-08-18T02:59:59.740Z,20.63
2022-08-18T03:02:01.467Z,23.65
2022-08-18T03:04:03.179Z,19.10
2022-08-18T03:06:05.051Z,21.02
2022-08-18T03:08:06.627Z,27.33
2022-08-18T03:10:31.415Z,19.65
2022-08-18T03:12:30.115Z,17.08
2022-08-18T03:14:31.761Z,29.05
2022-08-18T03:16:34.277Z,23.75
2022-08-18T03:18:36.520Z,22.33
2022-08-18T03:20:38.277Z,35.45
2022-08-18T03:22:39.988Z,25.02
2022-08-18T03:24:41.704Z,22.60
2022-08-18T03:26:43.950Z,27.65
2022-08-18T03:28:47.032Z,17.33
2022-08-18T03:30:48.619Z,24.40
2022-08-18T03:32:50.636Z,26.02
2022-08-18T03:34:52.302Z,25.00
2022-08-18T03:36:53.868Z,20.67
2022-08-18T03:38:55.538Z,18.40
2022-08-18T03:40:57.100Z,15.60
2022-08-18T03:42:58.753Z,18.85
2022-08-18T03:45:13.265Z,18.92
2022-08-18T03:47:19.706Z,17.73
2022-08-18T03:49:21.209Z,18.13
2022-08-18T03:51:25.288Z,20.08
2022-08-18T03:53:26.853Z,21.63
2022-08-18T03:55:29.439Z,24.55
2022-08-18T03:57:32.752Z,24.80
2022-08-18T03:59:43.877Z,25.00
2022-08-18T04:01:46.611Z,17.25
2022-08-18T04:03:51.332Z,22.63
2022-08-18T04:05:53.993Z,22.13
2022-08-18T04:07:57.206Z,19.92
2022-08-18T04:09:58.715Z,22.08
2022-08-18T04:12:04.056Z,21.98
2022-08-18T04:14:08.444Z,29.50
2022-08-18T04:16:10.286Z,22.85
2022-08-18T04:18:12.386Z,26.98
2022-08-18T04:20:13.946Z,24.17
2022-08-18T04:22:17.355Z,24.33
2022-08-18T04:24:20.169Z,27.00
2022-08-18T04:26:22.009Z,25.90
2022-08-18T04:28:23.573Z,26.00
2022-08-18T04:30:25.088Z,25.55
2022-08-18T04:32:30.177Z,25.33
2022-08-18T04:34:33.307Z,26.33
2022-08-18T04:36:35.960Z,31.15
2022-08-18T04:38:37.945Z,30.40
2022-08-18T04:40:41.384Z,24.15
2022-08-18T04:42:44.877Z,28.25
2022-08-18T04:44:46.925Z,26.83
2022-08-18T04:46:52.013Z,25.88
2022-08-18T04:48:59.263Z,24.00
2022-08-18T04:51:09.652Z,25.35
2022-08-18T04:53:29.783Z,28.20
2022-08-18T04:55:31.347Z,23.35
2022-08-18T04:57:34.124Z,24.55
2022-08-18T04:59:37.261Z,21.60
2022-08-18T05:01:45.333Z,27.48
2022-08-18T05:03:50.392Z,31.50
2022-08-18T05:05:53.300Z,30.80
2022-08-18T05:07:55.365Z,26.95
2022-08-18T05:09:57.058Z,31.13
2022-08-18T05:11:58.876Z,31.35
2022-08-18T05:14:01.651Z,26.27
2022-08-18T05:16:18.144Z,23.52
2022-08-18T05:18:26.680Z,29.02
2022-08-18T05:20:28.433Z,28.45
2022-08-18T05:22:31.807Z,31.88
2022-08-18T05:24:37.044Z,21.02
2022-08-18T05:26:41.520Z,19.98
2022-08-18T05:28:43.857Z,25.58
2022-08-18T05:30:46.995Z,16.38
2022-08-18T05:32:50.331Z,18.48
2022-08-18T05:34:52.344Z,23.52
2022-08-18T05:37:01.397Z,20.55
2022-08-18T05:39:16.957Z,27.70
2022-08-18T05:41:30.555Z,27.45
2022-08-18T05:43:51.293Z,20.17
2022-08-18T05:46:03.159Z,21.17
2022-08-18T05:48:12.443Z,25.77
2022-08-18T05:50:24.156Z,20.67
2022-08-18T05:52:54.075Z,27.20
2022-08-18T05:55:29.074Z,21.85
2022-08-18T05:57:45.963Z,30.10
2022-08-18T05:59:58.382Z,29.92
2022-08-18T06:02:17.303Z,26.92
2022-08-18T06:04:29.667Z,23.08
2022-08-18T06:06:32.371Z,21.27
2022-08-18T06:08:40.595Z,24.13
2022-08-18T06:10:44.309Z,28.58
2022-08-18T06:12:49.259Z,23.48
2022-08-18T06:14:50.977Z,24.65
2022-08-18T06:16:53.465Z,28.42
2022-08-18T06:19:13.692Z,27.25
2022-08-18T06:21:39.004Z,16.48
2022-08-18T06:24:01.324Z,27.88
2022-08-18T06:26:06.941Z,31.77
2022-08-18T06:28:13.275Z,28.38
2022-08-18T06:30:20.377Z,29.33
2022-08-18T06:32:28.420Z,28.50
2022-08-18T06:34:32.970Z,25.63
2022-08-18T06:36:40.648Z,29.00
2022-08-18T06:38:46.104Z,24.00
2022-08-18T06:40:48.612Z,26.75
2022-08-18T06:42:50.147Z,21.15
2022-08-18T06:45:02.032Z,24.48
2022-08-18T06:47:23.036Z,19.17
2022-08-18T06:49:24.612Z,23.98
2022-08-18T06:51:28.285Z,19.95
2022-08-18T06:53:48.180Z,20.17
2022-08-18T06:55:50.464Z,19.30
2022-08-18T06:57:56.190Z,17.63
2022-08-18T07:00:00.143Z,22.10
2022-08-18T07:02:21.934Z,18.50
2022-08-18T07:04:30.444Z,16.95
2022-08-18T07:06:32.096Z,16.98
2022-08-18T07:08:35.663Z,21.83
2022-08-18T07:10:39.369Z,17.90
2022-08-18T07:14:44.302Z,18.35
2022-08-18T07:19:08.842Z,14.52
2022-08-18T07:21:23.670Z,13.90
2022-08-18T07:23:44.200Z,15.27
2022-08-18T07:25:46.836Z,17.80
2022-08-18T07:27:49.447Z,20.45
2022-08-18T07:30:04.504Z,23.20
2022-08-18T07:32:21.126Z,16.52
2022-08-18T07:34:25.856Z,16.83
2022-08-18T07:36:29.952Z,23.20
2022-08-18T07:39:01.401Z,17.85
2022-08-18T07:41:07.320Z,19.20
2022-08-18T07:43:20.305Z,15.63
2022-08-18T07:45:31.656Z,16.95
2022-08-18T07:47:40.702Z,12.32
2022-08-18T07:50:13.434Z,14.95
2022-08-18T07:52:04.718Z,15.75
2022-08-18T07:54:31.211Z,12.13
2022-08-18T07:56:38.149Z,14.55
2022-08-18T07:58:43.105Z,13.57
2022-08-18T08:01:02.384Z,13.55
2022-08-18T08:03:18.939Z,12.70
2022-08-18T08:05:24.940Z,13.75
2022-08-18T08:07:30.382Z,11.95
2022-08-18T08:09:38.192Z,12.05
2022-08-18T08:11:58.427Z,11.25
2022-08-18T08:14:02.783Z,14.63
2022-08-18T08:16:16.353Z,11.30
2022-08-18T08:18:29.682Z,13.07
2022-08-18T08:20:50.825Z,12.27
2022-08-18T08:23:05.835Z,15.15
2022-08-18T08:25:35.070Z,14.32
2022-08-18T08:28:07.465Z,14.98
2022-08-18T08:30:12.518Z,14.98
2022-08-18T08:32:33.698Z,22.20
2022-08-18T08:34:35.129Z,9.82
2022-08-18T08:36:39.853Z,11.00
2022-08-18T08:38:49.573Z,10.63
2022-08-18T08:40:57.893Z,10.73
2022-08-18T08:43:13.236Z,6.82
2022-08-18T08:45:25.649Z,8.00
2022-08-18T08:47:46.176Z,7.32
2022-08-18T08:50:14.766Z,7.68
2022-08-18T08:52:26.125Z,10.48
2022-08-18T08:54:40.008Z,10.48
2022-08-18T08:56:51.983Z,10.00
2022-08-18T08:59:10.523Z,11.98
2022-08-18T09:01:30.698Z,8.68
2022-08-18T09:03:42.286Z,11.82
2022-08-18T09:05:56.785Z,16.05
2022-08-18T09:08:06.207Z,9.40
2022-08-18T09:10:26.979Z,12.05
2022-08-18T09:12:37.221Z,12.57
2022-08-18T09:14:57.159Z,17.38
2022-08-18T09:17:17.364Z,14.18
2022-08-18T09:19:42.416Z,19.88
2022-08-18T09:22:01.314Z,16.60
2022-08-18T09:24:11.006Z,17.85
2022-08-18T09:26:22.937Z,15.40
2022-08-18T09:28:28.007Z,12.82
2022-08-18T09:30:39.327Z,16.27
2022-08-18T09:32:53.082Z,19.92
2022-08-18T09:34:56.439Z,17.08
2022-08-18T09:37:05.015Z,13.30
2022-08-18T09:39:38.608Z,18.40
2022-08-18T09:41:49.026Z,15.50
2022-08-18T09:44:21.360Z,19.55
2022-08-18T09:46:47.949Z,12.40
2022-08-18T09:49:09.674Z,17.25
2022-08-18T09:51:30.119Z,14.45
2022-08-18T09:53:37.970Z,15.32
2022-08-18T09:55:51.984Z,11.73
2022-08-18T09:58:12.501Z,16.63
2022-08-18T10:00:26.688Z,13.75
2022-08-18T10:02:29.939Z,13.52
2022-08-18T10:04:31.634Z,10.65
2022-08-18T10:06:36.999Z,10.10
2022-08-18T10:08:52.706Z,12.55
2022-08-18T10:13:29.657Z,6.80
2022-08-18T10:15:34.323Z,7.43
2022-08-18T10:17:59.403Z,11.68
2022-08-18T10:20:25.958Z,11.98
2022-08-18T10:22:43.533Z,10.75
2022-08-18T10:24:53.975Z,8.00
2022-08-18T10:26:55.570Z,9.55
2022-08-18T10:29:05.250Z,8.02
2022-08-18T10:31:10.174Z,8.05
2022-08-18T10:33:17.674Z,7.22
2022-08-18T10:35:52.163Z,9.90
2022-08-18T10:37:54.211Z,9.00
2022-08-18T10:40:09.706Z,5.78
2022-08-18T10:42:19.889Z,6.13
2022-08-18T10:44:29.277Z,6.65
2022-08-18T10:46:42.374Z,6.93
2022-08-18T10:48:44.883Z,3.15
2022-08-18T10:50:47.140Z,4.53
2022-08-18T10:58:06.985Z,7.32
2022-08-18T11:00:19.316Z,6.32
2022-08-18T11:02:39.564Z,5.50
2022-08-18T11:04:43.383Z,3.72
2022-08-18T11:06:51.418Z,6.47
2022-08-18T11:08:57.729Z,7.13
2022-08-18T11:11:32.575Z,3.28
2022-08-18T11:13:28.338Z,3.15
2022-08-18T11:15:38.710Z,5.75
2022-08-18T11:17:49.377Z,4.75
2022-08-18T11:19:51.769Z,8.48
2022-08-18T11:21:53.395Z,2.90
2022-08-18T11:24:04.745Z,3.03
2022-08-18T11:26:18.403Z,8.13
2022-08-18T11:28:22.070Z,4.68
2022-08-18T11:30:37.507Z,9.20
2022-08-18T11:35:24.605Z,5.85
2022-08-18T11:37:48.843Z,6.90
2022-08-18T11:39:55.289Z,4.40
2022-08-18T11:41:58.114Z,9.10
2022-08-18T11:44:00.173Z,11.65
2022-08-18T11:46:11.599Z,10.10
2022-08-18T11:48:20.837Z,6.25
2022-08-18T11:50:32.589Z,7.97
2022-08-18T11:52:57.524Z,8.82
2022-08-18T11:55:14.606Z,9.38
2022-08-18T11:57:32.852Z,11.48
2022-08-18T11:59:54.868Z,11.43
2022-08-18T12:02:00.694Z,6.68
2022-08-18T12:04:22.784Z,5.93
2022-08-18T12:06:29.887Z,5.03
2022-08-18T12:08:56.983Z,4.25
2022-08-18T12:11:26.827Z,9.27
2022-08-18T12:13:31.824Z,8.77
2022-08-18T12:15:44.471Z,5.95
2022-08-18T12:17:52.167Z,5.63
2022-08-18T12:19:55.058Z,4.07
2022-08-18T12:21:59.807Z,1.95
2022-08-18T12:24:01.514Z,4.45
2022-08-18T12:26:03.529Z,4.82
2022-08-18T12:28:05.072Z,4.40
2022-08-18T12:32:48.862Z,1.88
2022-08-18T12:34:52.825Z,3.63
2022-08-18T12:36:58.724Z,6.65
2022-08-18T12:39:00.634Z,6.03
2022-08-18T12:41:03.157Z,4.57
2022-08-18T12:43:05.833Z,7.50
2022-08-18T12:45:08.741Z,5.68
2022-08-18T12:47:12.834Z,6.97
2022-08-18T12:49:18.967Z,2.88
2022-08-18T12:51:20.743Z,4.72
2022-08-18T12:53:30.131Z,3.22
2022-08-18T12:55:48.565Z,3.63
2022-08-18T13:00:16.999Z,4.30
2022-08-18T13:02:20.562Z,4.68
2022-08-18T13:04:22.636Z,2.65
2022-08-18T13:06:28.673Z,5.50
2022-08-18T13:08:33.798Z,6.65
2022-08-18T13:10:51.310Z,3.30
2022-08-18T13:12:58.046Z,4.18
2022-08-18T13:15:00.854Z,6.87
2022-08-18T13:17:03.206Z,10.50
2022-08-18T13:19:06.136Z,5.28
2022-08-18T13:21:15.307Z,5.47
2022-08-18T13:23:22.575Z,2.97
2022-08-18T13:25:32.327Z,3.15
2022-08-18T13:27:45.696Z,7.80
2022-08-18T13:29:47.302Z,6.38
2022-08-18T13:31:58.163Z,2.95
2022-08-18T13:34:00.390Z,4.25
2022-08-18T13:36:06.012Z,6.07
2022-08-18T13:38:15.889Z,3.95
2022-08-18T13:40:22.364Z,7.07
2022-08-18T13:42:28.486Z,4.82
2022-08-18T13:44:31.460Z,7.28
2022-08-18T13:46:32.993Z,10.48
2022-08-18T13:48:35.080Z,2.88
2022-08-18T13:50:40.950Z,5.78
2022-08-18T13:52:44.789Z,3.65
2022-08-18T13:54:46.688Z,2.65
2022-08-18T13:56:56.424Z,3.80
2022-08-18T13:59:00.554Z,7.03
2022-08-18T14:01:39.529Z,4.70
2022-08-18T14:03:42.621Z,2.63
2022-08-18T14:05:51.832Z,3.65
2022-08-18T14:07:54.603Z,2.53
2022-08-18T14:09:58.914Z,2.70
2022-08-18T14:12:15.960Z,8.00
2022-08-18T14:14:24.562Z,3.00
2022-08-18T14:16:27.587Z,3.85
2022-08-18T14:18:30.755Z,7.50
2022-08-18T14:20:51.281Z,2.72
2022-08-18T14:23:12.521Z,4.07
2022-08-18T14:25:33.453Z,3.20
2022-08-18T14:27:36.748Z,4.50
2022-08-18T14:29:45.776Z,4.63
2022-08-18T14:31:49.489Z,5.22
2022-08-18T14:33:55.513Z,3.53
2022-08-18T14:36:05.778Z,7.45
2022-08-18T14:38:09.837Z,2.65
2022-08-18T14:40:12.330Z,1.70
2022-08-18T14:42:15.092Z,1.85
2022-08-18T14:44:21.821Z,1.75
2022-08-18T14:46:30.113Z,3.03
2022-08-18T14:48:35.252Z,3.30
2022-08-18T14:50:37.130Z,3.25
2022-08-18T14:52:41.079Z,3.25
2022-08-18T14:54:46.335Z,7.53
2022-08-18T14:56:54.303Z,4.05
2022-08-18T14:59:01.834Z,4.82
2022-08-18T15:01:10.570Z,4.60
2022-08-18T15:03:14.965Z,3.03
2022-08-18T15:05:24.661Z,1.95
2022-08-18T15:07:28.529Z,3.60
2022-08-18T15:09:37.736Z,3.30
2022-08-18T15:11:43.273Z,6.63
2022-08-18T15:13:49.305Z,2.20
2022-08-18T15:15:53.099Z,5.80
2022-08-18T15:17:57.061Z,2.15
2022-08-18T15:20:03.849Z,1.85
2022-08-18T15:22:24.832Z,3.67
2022-08-18T15:24:44.930Z,1.95
2022-08-18T15:26:57.583Z,4.07
2022-08-18T15:29:10.778Z,3.05
2022-08-18T15:31:17.056Z,2.05
2022-08-18T15:33:21.998Z,3.65
2022-08-18T15:35:25.911Z,4.03
2022-08-18T15:37:28.784Z,1.80
2022-08-18T15:39:30.460Z,3.78
2022-08-18T15:41:40.063Z,2.47
2022-08-18T15:43:48.159Z,3.20
2022-08-18T15:45:56.239Z,2.05
2022-08-18T15:47:59.964Z,1.73
2022-08-18T15:50:06.801Z,5.20
2022-08-18T15:52:25.956Z,3.17
2022-08-18T15:54:27.862Z,1.15
2022-08-18T15:56:31.540Z,4.47
2022-08-18T16:00:34.622Z,3.60
2022-08-18T16:02:39.024Z,5.05
2022-08-18T16:04:42.998Z,2.40
2022-08-18T16:06:50.964Z,3.97
2022-08-18T16:08:54.503Z,6.72
2022-08-18T16:10:56.392Z,3.17
2022-08-18T16:12:59.211Z,3.60
2022-08-18T16:15:03.826Z,3.77
2022-08-18T16:17:18.181Z,3.10
2022-08-18T16:19:26.023Z,4.57
2022-08-18T16:21:32.461Z,4.85
2022-08-18T16:23:33.964Z,4.60
2022-08-18T16:25:39.480Z,12.90
2022-08-18T16:27:44.014Z,4.78
2022-08-18T16:29:45.653Z,4.13
2022-08-18T16:31:47.188Z,12.35
2022-08-18T16:33:48.747Z,8.13
2022-08-18T16:35:51.956Z,4.07
2022-08-18T16:37:53.806Z,4.70
2022-08-18T16:39:55.575Z,10.23
2022-08-18T16:41:57.647Z,6.05
2022-08-18T16:43:59.139Z,6.85
2022-08-18T16:46:02.702Z,4.40
2022-08-18T16:48:08.135Z,5.22
2022-08-18T16:50:11.755Z,3.25
2022-08-18T16:52:15.683Z,6.05
2022-08-18T16:54:17.230Z,9.93
2022-08-18T16:56:23.454Z,4.28
2022-08-18T16:58:43.662Z,5.93
2022-08-18T17:01:03.734Z,7.65
2022-08-18T17:03:25.188Z,5.18
2022-08-18T17:05:26.838Z,2.75
2022-08-18T17:07:32.479Z,4.47
2022-08-18T17:09:34.901Z,5.20
2022-08-18T17:11:36.556Z,4.20
2022-08-18T17:13:50.575Z,2.92
2022-08-18T17:15:52.362Z,7.00
2022-08-18T17:17:53.843Z,3.28
2022-08-18T17:19:55.648Z,4.00
2022-08-18T17:21:57.263Z,5.32
2022-08-18T17:24:00.016Z,5.15
2022-08-18T17:26:07.028Z,3.20
2022-08-18T17:28:10.073Z,5.40
2022-08-18T17:30:13.198Z,5.28
2022-08-18T17:32:20.364Z,8.18
2022-08-18T17:34:27.398Z,3.88
2022-08-18T17:36:33.883Z,4.03
2022-08-18T17:38:43.918Z,4.82
2022-08-18T17:40:48.411Z,5.38
2022-08-18T17:42:51.701Z,4.95
2022-08-18T17:45:01.612Z,3.80
2022-08-18T17:47:06.147Z,4.03
2022-08-18T17:49:18.098Z,7.15
2022-08-18T17:51:34.635Z,2.08
2022-08-18T17:53:36.517Z,6.68
2022-08-18T17:55:49.870Z,9.45
2022-08-18T17:57:58.626Z,3.58
2022-08-18T18:00:10.088Z,7.45
2022-08-18T18:02:29.007Z,5.40
2022-08-18T18:04:39.359Z,5.13
2022-08-18T18:06:48.262Z,6.22
2022-08-18T18:08:56.640Z,5.50
2022-08-18T18:11:13.027Z,8.82
2022-08-18T18:13:21.166Z,3.92
2022-08-18T18:15:33.968Z,5.55
2022-08-18T18:17:44.387Z,9.20
2022-08-18T18:19:56.448Z,5.45
2022-08-18T18:22:12.549Z,4.50
2022-08-18T18:24:23.693Z,5.45
2022-08-18T18:26:33.809Z,6.20
2022-08-18T18:28:36.031Z,6.18
2022-08-18T18:30:37.892Z,3.78
2022-08-18T18:32:58.739Z,6.28
2022-08-18T18:35:09.627Z,8.02
2022-08-18T18:37:32.116Z,4.65
2022-08-18T18:39:38.024Z,2.95
2022-08-18T18:41:40.942Z,7.30
2022-08-18T18:43:44.654Z,4.63
2022-08-18T18:46:05.025Z,8.13
2022-08-18T18:48:43.606Z,3.15
2022-08-18T18:50:36.104Z,5.00
2022-08-18T18:52:44.592Z,5.93
2022-08-18T18:54:49.796Z,5.47
2022-08-18T18:56:54.056Z,5.18
2022-08-18T18:59:01.782Z,6.30
2022-08-18T19:01:05.474Z,5.28
2022-08-18T19:03:10.596Z,2.80
2022-08-18T19:05:35.214Z,3.20
2022-08-18T19:08:03.686Z,4.13
2022-08-18T19:10:08.056Z,4.43
2022-08-18T19:12:09.877Z,1.83
2022-08-18T19:14:17.609Z,6.68
2022-08-18T19:16:24.110Z,3.30
2022-08-18T19:18:27.478Z,6.10
2022-08-18T19:20:36.262Z,6.07
2022-08-18T19:22:40.872Z,6.47
2022-08-18T19:24:46.087Z,8.55
2022-08-18T19:26:52.686Z,5.93
2022-08-18T19:29:12.834Z,8.88
2022-08-18T19:31:18.068Z,5.10
2022-08-18T19:33:27.855Z,7.70
2022-08-18T19:35:40.321Z,6.32
2022-08-18T19:38:00.717Z,7.97
2022-08-18T19:40:22.174Z,7.93
2022-08-18T19:42:35.246Z,9.38
2022-08-18T19:45:00.330Z,6.72
2022-08-18T19:47:16.712Z,5.47
2022-08-18T19:49:24.366Z,7.82
2022-08-18T19:51:29.064Z,9.18
2022-08-18T19:53:52.449Z,8.80
2022-08-18T19:55:55.230Z,11.88
2022-08-18T19:58:15.398Z,8.20
2022-08-18T20:00:22.929Z,6.45
2022-08-18T20:02:25.363Z,7.10
2022-08-18T20:04:27.067Z,11.82
2022-08-18T20:06:46.711Z,5.15
2022-08-18T20:08:56.068Z,8.75
2022-08-18T20:10:57.935Z,5.47
2022-08-18T20:13:11.331Z,9.07
2022-08-18T20:15:16.664Z,11.67
2022-08-18T20:17:20.514Z,10.32
2022-08-18T20:19:40.406Z,7.40
2022-08-18T20:21:44.190Z,8.65
2022-08-18T20:24:05.934Z,6.07
2022-08-18T20:26:28.208Z,11.68
2022-08-18T20:28:38.453Z,8.38
2022-08-18T20:30:40.104Z,10.23
2022-08-18T20:32:42.682Z,12.73
2022-08-18T20:34:47.175Z,11.85
2022-08-18T20:36:49.522Z,15.10
2022-08-18T20:38:53.114Z,18.38
2022-08-18T20:40:55.544Z,15.52
2022-08-18T20:43:07.807Z,9.77
2022-08-18T20:45:16.609Z,15.45
2022-08-18T20:47:29.511Z,13.82
2022-08-18T20:49:34.335Z,13.32
2022-08-18T20:51:45.907Z,12.30
2022-08-18T20:53:54.091Z,12.00
2022-08-18T20:56:31.392Z,21.52
2022-08-18T20:58:37.528Z,14.95
2022-08-18T21:00:41.563Z,18.55
2022-08-18T21:02:54.289Z,15.45
2022-08-18T21:05:00.109Z,14.27
2022-08-18T21:07:11.814Z,18.35
2022-08-18T21:09:19.234Z,15.90
2022-08-18T21:11:31.887Z,12.95
2022-08-18T21:13:59.310Z,15.85
2022-08-18T21:16:11.426Z,15.45
2022-08-18T21:18:25.050Z,9.23
2022-08-18T21:20:36.802Z,9.85
2022-08-18T21:22:47.577Z,16.73
2022-08-18T21:24:55.465Z,13.10
2022-08-18T21:27:22.884Z,10.13
2022-08-18T21:29:49.352Z,14.18
2022-08-18T21:32:08.742Z,9.35
2022-08-18T21:34:11.449Z,11.75
2022-08-18T21:36:13.638Z,18.27
2022-08-18T21:38:23.864Z,9.27
2022-08-18T21:40:48.595Z,11.63
2022-08-18T21:44:54.977Z,11.77
2022-08-18T21:47:05.585Z,5.47
2022-08-18T21:49:07.248Z,12.15
2022-08-18T21:51:18.159Z,7.60
2022-08-18T21:53:23.738Z,13.07
2022-08-18T21:55:30.303Z,10.25
2022-08-18T21:57:51.929Z,7.72
2022-08-18T22:00:13.167Z,6.05
2022-08-18T22:02:21.507Z,15.20
2022-08-18T22:04:27.923Z,7.65
2022-08-18T22:06:40.575Z,13.48
2022-08-18T22:09:23.994Z,14.25
2022-08-18T22:12:02.116Z,6.47
2022-08-18T22:14:18.534Z,9.75
2022-08-18T22:16:23.190Z,10.43
2022-08-18T22:20:44.532Z,5.95
2022-08-18T22:23:04.642Z,4.40
2022-08-18T22:25:06.659Z,5.80
2022-08-18T22:27:12.271Z,4.20
2022-08-18T22:29:35.535Z,6.65
2022-08-18T22:31:48.630Z,7.13
2022-08-18T22:33:51.079Z,7.32
2022-08-18T22:35:53.754Z,5.35
2022-08-18T22:37:55.421Z,3.17
2022-08-18T22:39:58.285Z,5.72
2022-08-18T22:42:00.061Z,3.95
2022-08-18T22:44:02.530Z,2.83
2022-08-18T22:46:04.304Z,3.92
2022-08-18T22:48:05.959Z,7.18
2022-08-18T22:50:07.848Z,6.82
2022-08-18T22:52:31.401Z,4.25
2022-08-18T22:54:33.466Z,2.90
2022-08-18T22:56:35.447Z,3.92
2022-08-18T22:58:42.332Z,9.80
2022-08-18T23:00:46.387Z,4.95
2022-08-18T23:02:47.996Z,4.47
2022-08-18T23:04:49.640Z,8.23
2022-08-18T23:06:52.132Z,7.90
2022-08-18T23:08:54.926Z,5.10
2022-08-18T23:10:57.608Z,5.65
2022-08-18T23:13:04.110Z,5.80
2022-08-18T23:15:12.007Z,6.43
2022-08-18T23:17:14.171Z,9.73
2022-08-18T23:19:16.868Z,6.22
2022-08-18T23:21:33.642Z,13.23
2022-08-18T23:23:37.335Z,8.35
2022-08-18T23:25:39.602Z,9.52
2022-08-18T23:27:43.096Z,6.15
2022-08-18T23:29:44.752Z,3.35
2022-08-18T23:31:46.816Z,5.07
2022-08-18T23:33:48.415Z,6.45
2022-08-18T23:35:50.503Z,5.78
2022-08-18T23:37:52.104Z,7.05
2022-08-18T23:39:53.770Z,10.15
2022-08-18T23:41:55.617Z,9.30
2022-08-18T23:43:57.712Z,12.38
2022-08-18T23:45:59.592Z,4.32
2022-08-18T23:48:01.319Z,4.88
2022-08-18T23:50:03.523Z,4.90
2022-08-18T23:52:05.743Z,10.60
2022-08-18T23:54:08.752Z,8.50
2022-08-18T23:56:10.296Z,4.53
2022-08-18T23:58:11.866Z,7.97
